createdAt,value
2017-07-23T00:02:28.903Z,65.5
2017-07-23T00:05:00.659Z,65.0
2017-07-23T00:07:32.369Z,65.3
2017-07-23T00:10:05.392Z,65.0
2017-07-23T00:12:37.195Z,65.3
2017-07-23T00:15:08.923Z,65.3
2017-07-23T00:17:40.771Z,65.3
2017-07-23T00:20:12.530Z,65.0
2017-07-23T00:22:44.536Z,65.1
2017-07-23T00:25:16.277Z,65.0
2017-07-23T00:27:48.115Z,65.8
2017-07-23T00:30:21.073Z,65.9
2017-07-23T00:32:53.867Z,65.4
2017-07-23T00:35:26.697Z,65.1
2017-07-23T00:37:58.391Z,65.3
2017-07-23T00:40:31.166Z,65.0
2017-07-23T00:43:02.904Z,64.9
2017-07-23T00:45:34.661Z,65.2
2017-07-23T00:48:06.454Z,65.2
2017-07-23T00:50:38.209Z,65.2
2017-07-23T00:53:09.921Z,65.4
2017-07-23T00:55:41.679Z,65.2
2017-07-23T00:58:13.412Z,65.4
2017-07-23T01:00:45.164Z,65.5
2017-07-23T01:03:16.881Z,65.5
2017-07-23T01:05:48.637Z,65.3
2017-07-23T01:08:20.347Z,65.4
2017-07-23T01:10:52.088Z,65.5
2017-07-23T01:13:23.828Z,65.3
2017-07-23T01:15:55.635Z,65.4
2017-07-23T01:18:27.341Z,65.4
2017-07-23T01:20:59.104Z,64.8
2017-07-23T01:23:30.834Z,65.3
2017-07-23T01:26:02.603Z,64.9
2017-07-23T01:28:34.325Z,65.8
2017-07-23T01:31:06.073Z,65.1
2017-07-23T01:33:37.791Z,65.5
2017-07-23T01:36:09.571Z,65.5
2017-07-23T01:38:41.290Z,65.4
2017-07-23T01:41:13.034Z,65.5
2017-07-23T01:43:44.762Z,65.5
2017-07-23T01:46:16.506Z,65.8
2017-07-23T01:48:48.206Z,65.4
2017-07-23T01:51:19.977Z,65.8
2017-07-23T01:53:51.682Z,65.4
2017-07-23T01:56:23.437Z,65.6
2017-07-23T01:58:55.148Z,65.8
2017-07-23T02:01:26.916Z,65.4
2017-07-23T02:03:58.629Z,65.4
2017-07-23T02:06:30.386Z,65.6
2017-07-23T02:09:02.125Z,65.6
2017-07-23T02:11:33.880Z,65.5
2017-07-23T02:14:05.591Z,65.6
2017-07-23T02:16:37.393Z,65.6
2017-07-23T02:19:09.104Z,65.8
2017-07-23T02:21:40.847Z,65.5
2017-07-23T02:24:12.571Z,65.8
2017-07-23T02:26:44.344Z,65.4
2017-07-23T02:29:16.075Z,65.5
2017-07-23T02:31:47.829Z,65.7
2017-07-23T02:34:19.546Z,65.2
2017-07-23T02:36:51.306Z,65.6
2017-07-23T02:39:23.014Z,65.4
2017-07-23T02:41:54.765Z,65.4
2017-07-23T02:44:26.486Z,65.5
2017-07-23T02:46:58.224Z,65.4
2017-07-23T02:49:29.945Z,65.2
2017-07-23T02:52:01.693Z,65.4
2017-07-23T02:54:33.411Z,66.0
2017-07-23T02:57:05.165Z,66.4
2017-07-23T02:59:36.901Z,66.6
2017-07-23T03:02:08.653Z,67.0
2017-07-23T03:04:40.361Z,66.4
2017-07-23T03:07:12.115Z,66.3
2017-07-23T03:09:43.816Z,66.5
2017-07-23T03:12:15.566Z,66.5
2017-07-23T03:14:47.288Z,66.7
2017-07-23T03:17:19.039Z,66.2
2017-07-23T03:19:50.760Z,66.5
2017-07-23T03:22:22.518Z,66.7
2017-07-23T03:24:54.226Z,66.7
2017-07-23T03:27:25.970Z,66.7
2017-07-23T03:29:57.697Z,66.2
2017-07-23T03:32:29.469Z,66.4
2017-07-23T03:35:01.185Z,66.2
2017-07-23T03:37:32.971Z,65.7
2017-07-23T03:40:04.692Z,66.2
2017-07-23T03:42:36.454Z,66.2
2017-07-23T03:45:08.173Z,65.8
2017-07-23T03:47:39.916Z,65.8
2017-07-23T03:50:11.619Z,65.7
2017-07-23T03:52:43.423Z,66.0
2017-07-23T03:55:15.174Z,66.2
2017-07-23T03:57:46.967Z,65.9
2017-07-23T04:00:18.734Z,65.7
2017-07-23T04:02:50.513Z,65.8
2017-07-23T04:05:22.231Z,65.8
2017-07-23T04:07:53.999Z,65.8
2017-07-23T04:10:25.727Z,65.9
2017-07-23T04:12:57.479Z,66.1
2017-07-23T04:15:29.207Z,66.1
2017-07-23T04:18:00.986Z,66.2
2017-07-23T04:20:32.736Z,65.9
2017-07-23T04:23:04.496Z,65.9
2017-07-23T04:25:36.228Z,65.9
2017-07-23T04:28:07.962Z,66.2
2017-07-23T04:30:39.680Z,66.0
2017-07-23T04:33:11.445Z,65.9
2017-07-23T04:35:43.173Z,65.6
2017-07-23T04:38:14.946Z,65.7
2017-07-23T04:40:46.669Z,65.6
2017-07-23T04:43:18.444Z,65.4
2017-07-23T04:45:50.180Z,65.5
2017-07-23T04:48:21.939Z,64.8
2017-07-23T04:50:53.672Z,65.4
2017-07-23T04:53:25.445Z,65.3
2017-07-23T04:55:57.186Z,65.2
2017-07-23T04:58:28.954Z,65.3
2017-07-23T05:01:00.663Z,65.4
2017-07-23T05:03:32.458Z,65.3
2017-07-23T05:06:04.216Z,64.8
2017-07-23T05:08:35.986Z,64.5
2017-07-23T05:11:07.728Z,64.8
2017-07-23T05:13:39.488Z,64.8
2017-07-23T05:16:11.224Z,64.4
2017-07-23T05:18:43.009Z,64.4
2017-07-23T05:21:14.768Z,64.8
2017-07-23T05:23:46.540Z,64.5
2017-07-23T05:26:18.278Z,64.1
2017-07-23T05:28:50.033Z,63.8
2017-07-23T05:31:21.761Z,63.8
2017-07-23T05:33:53.536Z,64.1
2017-07-23T05:36:25.322Z,63.8
2017-07-23T05:38:57.084Z,63.3
2017-07-23T05:41:28.834Z,63.6
2017-07-23T05:44:00.584Z,63.8
2017-07-23T05:46:32.344Z,63.8
2017-07-23T05:49:04.145Z,63.4
2017-07-23T05:51:35.875Z,63.5
2017-07-23T05:54:07.665Z,63.6
2017-07-23T05:56:39.381Z,63.5
2017-07-23T05:59:11.136Z,63.1
2017-07-23T06:01:42.855Z,63.5
2017-07-23T06:04:14.592Z,62.9
2017-07-23T06:06:47.766Z,62.6
2017-07-23T06:09:19.559Z,62.7
2017-07-23T06:11:51.286Z,61.9
2017-07-23T06:14:23.051Z,61.6
2017-07-23T06:16:54.796Z,61.8
2017-07-23T06:19:26.572Z,61.6
2017-07-23T06:21:58.306Z,61.5
2017-07-23T06:24:30.060Z,61.8
2017-07-23T06:27:01.813Z,61.7
2017-07-23T06:29:33.585Z,61.5
2017-07-23T06:32:05.308Z,61.7
2017-07-23T06:34:37.073Z,61.4
2017-07-23T06:37:08.802Z,61.3
2017-07-23T06:39:41.187Z,60.9
2017-07-23T06:42:12.874Z,60.5
2017-07-23T06:44:44.636Z,60.1
2017-07-23T06:47:16.381Z,60.1
2017-07-23T06:49:48.142Z,60.5
2017-07-23T06:52:19.891Z,60.5
2017-07-23T06:54:51.646Z,60.8
2017-07-23T06:57:23.661Z,60.9
2017-07-23T06:59:55.443Z,61.3
2017-07-23T07:02:27.162Z,61.6
2017-07-23T07:04:58.917Z,61.3
2017-07-23T07:07:30.654Z,61.3
2017-07-23T07:10:02.493Z,61.4
2017-07-23T07:12:34.194Z,61.4
2017-07-23T07:15:05.944Z,61.3
2017-07-23T07:17:37.672Z,61.9
2017-07-23T07:20:09.422Z,61.9
2017-07-23T07:22:41.140Z,61.1
2017-07-23T07:25:12.886Z,61.6
2017-07-23T07:27:45.039Z,62.1
2017-07-23T07:30:17.181Z,63.1
2017-07-23T07:32:48.891Z,62.8
2017-07-23T08:33:56.751Z,57.3
2017-07-23T08:36:28.545Z,56.1
2017-07-23T08:39:00.275Z,56.7
2017-07-23T08:41:32.017Z,54.7
2017-07-23T08:44:03.754Z,55.7
2017-07-23T08:46:35.515Z,53.7
2017-07-23T08:49:07.248Z,55.2
2017-07-23T08:51:39.015Z,53.3
2017-07-23T08:54:10.756Z,53.4
2017-07-23T08:56:42.535Z,54.4
2017-07-23T08:59:14.242Z,52.0
2017-07-23T09:01:46.033Z,54.3
2017-07-23T09:04:17.780Z,51.5
2017-07-23T09:06:49.538Z,53.0
2017-07-23T09:09:21.306Z,50.3
2017-07-23T09:11:53.091Z,52.8
2017-07-23T09:14:24.822Z,53.8
2017-07-23T09:16:56.578Z,53.9
2017-07-23T09:19:28.312Z,50.7
2017-07-23T09:22:00.081Z,50.7
2017-07-23T09:24:31.900Z,49.0
2017-07-23T09:27:03.795Z,49.5
2017-07-23T09:29:35.505Z,49.6
2017-07-23T09:32:07.269Z,49.7
2017-07-23T09:34:38.999Z,48.8
2017-07-23T09:37:10.788Z,46.9
2017-07-23T09:39:42.525Z,48.2
2017-07-23T09:42:14.284Z,47.6
2017-07-23T09:44:46.028Z,47.4
2017-07-23T09:47:17.789Z,47.7
2017-07-23T09:49:49.517Z,47.6
2017-07-23T09:52:21.303Z,47.0
2017-07-23T09:54:53.073Z,47.8
2017-07-23T09:57:24.922Z,47.8
2017-07-23T09:59:56.646Z,48.1
2017-07-23T10:02:29.510Z,49.7
2017-07-23T10:05:01.286Z,48.0
2017-07-23T10:07:33.043Z,48.3
2017-07-23T10:10:05.703Z,47.5
2017-07-23T10:12:37.715Z,47.2
2017-07-23T10:15:16.025Z,46.9
2017-07-23T10:17:48.920Z,47.5
2017-07-23T10:20:20.678Z,47.4
2017-07-23T10:22:52.548Z,47.8
2017-07-23T10:25:25.812Z,47.8
2017-07-23T10:27:59.338Z,47.8
2017-07-23T10:30:33.363Z,47.6
2017-07-23T10:33:05.098Z,48.8
2017-07-23T10:35:42.029Z,49.7
2017-07-23T10:38:17.303Z,47.8
2017-07-23T10:40:57.278Z,47.7
2017-07-23T10:43:30.690Z,46.8
2017-07-23T10:46:05.248Z,47.7
2017-07-23T10:48:42.943Z,47.1
2017-07-23T10:51:14.630Z,47.2
2017-07-23T10:53:50.006Z,47.6
2017-07-23T10:56:22.947Z,47.7
2017-07-23T10:58:56.174Z,48.0
2017-07-23T11:01:28.013Z,48.1
2017-07-23T11:03:59.770Z,48.5
2017-07-23T11:06:31.506Z,48.3
2017-07-23T11:09:03.604Z,47.4
2017-07-23T11:11:35.609Z,47.3
2017-07-23T11:14:07.363Z,47.2
2017-07-23T11:16:39.067Z,47.0
2017-07-23T11:19:13.211Z,45.9
2017-07-23T11:21:45.023Z,45.5
2017-07-23T11:24:16.790Z,45.1
2017-07-23T11:26:49.735Z,44.8
2017-07-23T11:29:21.512Z,46.4
2017-07-23T11:31:53.919Z,46.7
2017-07-23T11:34:25.703Z,46.4
2017-07-23T11:36:57.410Z,46.6
2017-07-23T11:39:29.172Z,46.5
2017-07-23T11:42:01.193Z,46.5
2017-07-23T11:44:36.547Z,45.6
2017-07-23T11:47:08.267Z,42.3
2017-07-23T11:49:40.069Z,42.1
2017-07-23T11:52:11.803Z,42.7
2017-07-23T11:54:44.565Z,42.8
2017-07-23T11:57:16.455Z,43.0
2017-07-23T11:59:48.242Z,43.0
2017-07-23T12:02:20.051Z,43.0
2017-07-23T12:04:51.830Z,42.9
2017-07-23T12:07:23.583Z,44.3
2017-07-23T12:09:56.051Z,44.8
2017-07-23T12:12:27.816Z,45.3
2017-07-23T12:14:59.576Z,45.1
2017-07-23T12:17:31.325Z,45.0
2017-07-23T12:20:04.333Z,45.3
2017-07-23T12:22:36.096Z,45.7
2017-07-23T12:25:07.840Z,46.8
2017-07-23T12:27:40.058Z,47.1
2017-07-23T12:30:11.937Z,46.7
2017-07-23T12:32:43.691Z,46.7
2017-07-23T12:35:15.496Z,47.7
2017-07-23T12:37:47.504Z,46.7
2017-07-23T12:40:19.526Z,46.1
2017-07-23T12:42:51.399Z,45.7
2017-07-23T12:45:24.639Z,45.2
2017-07-23T12:47:56.389Z,45.2
2017-07-23T12:50:28.185Z,46.3
2017-07-23T12:52:59.956Z,46.8
2017-07-23T12:55:31.740Z,46.6
2017-07-23T12:58:03.482Z,45.8
2017-07-23T13:00:35.276Z,45.1
2017-07-23T13:03:07.091Z,45.8
2017-07-23T13:05:38.820Z,46.1
2017-07-23T13:08:10.530Z,45.9
2017-07-23T13:10:42.295Z,45.1
2017-07-23T13:13:14.004Z,44.6
2017-07-23T13:15:45.795Z,45.5
2017-07-23T13:18:17.514Z,43.8
2017-07-23T13:20:49.878Z,43.7
2017-07-23T13:23:21.922Z,45.3
2017-07-23T13:25:53.673Z,43.9
2017-07-23T13:28:26.043Z,43.8
2017-07-23T13:30:57.799Z,43.4
2017-07-23T13:33:30.492Z,44.0
2017-07-23T13:36:02.587Z,43.0
2017-07-23T13:38:34.841Z,42.1
2017-07-23T13:41:06.599Z,42.9
2017-07-23T13:43:38.464Z,46.1
2017-07-23T13:46:10.291Z,47.6
2017-07-23T13:48:42.041Z,47.4
2017-07-23T13:51:13.878Z,47.8
2017-07-23T13:53:45.645Z,46.8
2017-07-23T13:56:17.445Z,46.7
2017-07-23T13:58:49.170Z,45.3
2017-07-23T14:01:20.948Z,45.0
2017-07-23T14:03:52.662Z,47.6
2017-07-23T14:06:24.424Z,47.1
2017-07-23T14:08:56.153Z,47.4
2017-07-23T14:11:27.983Z,47.7
2017-07-23T14:13:59.715Z,47.7
2017-07-23T14:16:31.462Z,47.7
2017-07-23T14:19:03.191Z,47.9
2017-07-23T14:21:34.974Z,49.0
2017-07-23T14:24:06.687Z,49.1
2017-07-23T14:26:38.446Z,49.6
2017-07-23T14:29:10.162Z,51.0
2017-07-23T14:31:41.906Z,49.7
2017-07-23T14:34:13.641Z,49.5
2017-07-23T14:36:45.419Z,49.7
2017-07-23T14:39:17.145Z,49.6
2017-07-23T14:41:48.926Z,50.3
2017-07-23T14:44:20.658Z,48.8
2017-07-23T14:46:52.512Z,47.9
2017-07-23T14:49:24.236Z,47.7
2017-07-23T14:51:56.058Z,48.6
2017-07-23T14:54:27.859Z,48.2
2017-07-23T14:56:59.660Z,48.4
2017-07-23T14:59:31.391Z,48.3
2017-07-23T15:02:03.140Z,47.7
2017-07-23T15:04:34.867Z,47.6
2017-07-23T15:07:06.642Z,47.6
2017-07-23T15:09:38.366Z,49.0
2017-07-23T15:12:10.190Z,47.6
2017-07-23T15:14:41.923Z,47.2
2017-07-23T15:17:13.691Z,48.8
2017-07-23T15:19:45.523Z,49.5
2017-07-23T15:22:17.289Z,49.8
2017-07-23T15:24:49.001Z,47.8
2017-07-23T15:27:20.792Z,47.3
2017-07-23T15:29:52.563Z,47.4
2017-07-23T15:32:24.335Z,47.5
2017-07-23T15:34:56.084Z,50.5
2017-07-23T15:37:27.836Z,47.9
2017-07-23T15:39:59.610Z,48.8
2017-07-23T15:42:31.368Z,48.7
2017-07-23T15:45:03.091Z,48.5
2017-07-23T15:47:34.907Z,50.0
